createdAt,value
2023-01-29T00:00:53.627Z,102808.16
2023-01-29T00:11:02.089Z,102805.38
2023-01-29T00:21:10.250Z,102802.75
2023-01-29T00:31:15.340Z,102780.31
2023-01-29T00:41:39.359Z,102790.06
2023-01-29T00:51:42.337Z,102767.38
2023-01-29T01:02:04.221Z,102747.69
2023-01-29T01:12:07.749Z,102744.75
2023-01-29T01:22:12.279Z,102762.81
2023-01-29T01:32:16.019Z,102749.19
2023-01-29T01:42:20.839Z,102751.59
2023-01-29T01:52:24.127Z,102754.00
2023-01-29T02:02:46.623Z,102756.81
2023-01-29T02:12:49.861Z,102764.88
2023-01-29T02:23:34.128Z,102761.97
2023-01-29T02:33:49.215Z,102767.88
2023-01-29T02:43:59.257Z,102767.19
2023-01-29T02:54:08.736Z,102767.13
2023-01-29T03:04:15.842Z,102752.25
2023-01-29T03:14:49.371Z,102750.75
2023-01-29T03:25:14.340Z,102758.06
2023-01-29T03:35:36.556Z,102734.00
2023-01-29T03:45:50.099Z,102740.50
2023-01-29T03:56:02.307Z,102726.34
2023-01-29T04:06:12.874Z,102727.94
2023-01-29T04:16:29.343Z,102707.94
2023-01-29T04:27:02.062Z,102695.97
2023-01-29T04:37:17.004Z,102712.69
2023-01-29T04:47:25.703Z,102692.00
2023-01-29T04:57:36.143Z,102663.47
2023-01-29T05:07:40.553Z,102654.94
2023-01-29T05:17:45.188Z,102661.88
2023-01-29T05:28:05.331Z,102641.66
2023-01-29T05:38:09.810Z,102619.75
2023-01-29T05:48:12.864Z,102630.28
2023-01-29T05:58:19.625Z,102645.72
2023-01-29T06:08:22.669Z,102644.63
2023-01-29T06:18:27.094Z,102657.22
2023-01-29T06:28:30.281Z,102681.50
2023-01-29T06:38:35.009Z,102630.84
2023-01-29T06:48:38.198Z,102636.69
2023-01-29T06:58:43.745Z,102608.22
2023-01-29T07:08:46.916Z,102616.75
2023-01-29T07:18:51.427Z,102627.59
2023-01-29T07:28:54.661Z,102617.69
2023-01-29T07:38:59.246Z,102619.25
2023-01-29T07:49:02.539Z,102629.16
2023-01-29T07:59:06.870Z,102626.78
2023-01-29T08:09:10.040Z,102619.53
2023-01-29T08:19:14.563Z,102608.91
2023-01-29T08:29:17.658Z,102598.13
2023-01-29T08:39:22.244Z,102599.09
2023-01-29T08:49:25.491Z,102572.84
2023-01-29T08:59:30.050Z,102581.69
2023-01-29T09:09:33.030Z,102581.25
2023-01-29T09:19:37.352Z,102571.69
2023-01-29T09:29:40.704Z,102571.72
2023-01-29T09:39:45.353Z,102571.31
2023-01-29T09:49:51.747Z,102558.28
2023-01-29T09:59:56.459Z,102561.78
2023-01-29T10:10:26.132Z,102574.56
2023-01-29T10:20:56.380Z,102571.06
2023-01-29T10:31:03.913Z,102571.19
2023-01-29T10:41:26.320Z,102550.59
2023-01-29T10:51:55.650Z,102544.44
2023-01-29T11:02:03.283Z,102546.56
2023-01-29T11:12:13.979Z,102516.91
2023-01-29T11:22:21.021Z,102489.88
2023-01-29T11:32:29.811Z,102461.47
2023-01-29T11:42:35.274Z,102448.31
2023-01-29T11:52:42.460Z,102425.88
2023-01-29T12:02:50.227Z,102405.38
2023-01-29T12:12:53.571Z,102376.56
2023-01-29T12:23:05.193Z,102363.81
2023-01-29T12:33:16.966Z,102363.03
2023-01-29T12:43:28.749Z,102343.91
2023-01-29T12:53:36.547Z,102329.97
2023-01-29T13:03:51.262Z,102310.53
2023-01-29T13:13:59.173Z,102296.00
2023-01-29T13:24:06.016Z,102293.66
2023-01-29T13:34:15.752Z,102273.66
2023-01-29T13:44:24.329Z,102257.41
2023-01-29T13:54:29.075Z,102248.34
2023-01-29T14:04:34.184Z,102250.69
2023-01-29T14:15:21.133Z,102226.69
2023-01-29T14:25:32.297Z,102225.47
2023-01-29T14:35:36.029Z,102222.72
2023-01-29T14:45:42.811Z,102215.81
2023-01-29T14:55:49.860Z,102202.88
2023-01-29T15:05:55.614Z,102197.97
2023-01-29T15:16:07.307Z,102186.34
2023-01-29T15:26:16.269Z,102165.84
2023-01-29T15:36:22.137Z,102162.47
2023-01-29T15:46:29.128Z,102150.50
2023-01-29T15:56:39.657Z,102130.22
2023-01-29T16:06:44.938Z,102122.47
2023-01-29T16:16:49.029Z,102125.97
2023-01-29T16:27:00.370Z,102109.28
2023-01-29T16:37:07.183Z,102106.59
2023-01-29T16:47:15.755Z,102097.16
2023-01-29T16:57:22.795Z,102091.31
2023-01-29T17:07:28.198Z,102096.44
2023-01-29T17:17:33.386Z,102083.41
2023-01-29T17:27:42.136Z,102070.28
2023-01-29T17:37:45.807Z,102078.84
2023-01-29T17:47:50.177Z,102073.41
2023-01-29T17:57:53.126Z,102054.97
2023-01-29T18:07:57.567Z,102044.63
2023-01-29T18:18:00.683Z,102052.41
2023-01-29T18:28:06.810Z,102040.16
2023-01-29T18:38:10.073Z,102026.31
2023-01-29T18:48:14.932Z,101999.03
2023-01-29T18:58:28.307Z,101974.16
2023-01-29T19:08:41.491Z,101984.44
2023-01-29T19:18:44.816Z,101950.97
2023-01-29T19:28:49.439Z,101924.59
2023-01-29T19:38:52.695Z,101923.13
2023-01-29T19:48:58.718Z,101872.38
2023-01-29T19:59:02.242Z,101862.47
2023-01-29T20:09:07.104Z,101856.31
2023-01-29T20:19:14.637Z,101871.88
2023-01-29T20:29:19.576Z,101867.34
2023-01-29T20:39:22.950Z,101878.13
2023-01-29T20:49:28.663Z,101852.84
2023-01-29T20:59:31.983Z,101837.56
2023-01-29T21:09:36.428Z,101842.78
2023-01-29T21:19:39.516Z,101866.31
2023-01-29T21:29:43.991Z,101855.53
2023-01-29T21:39:47.308Z,101839.47
2023-01-29T21:49:51.730Z,101840.41
2023-01-29T21:59:55.209Z,101838.19
2023-01-29T22:09:59.679Z,101830.88
2023-01-29T22:20:03.081Z,101793.66
2023-01-29T22:30:09.418Z,101730.84
2023-01-29T22:40:13.690Z,101732.81
2023-01-29T22:50:18.389Z,101729.75
2023-01-29T23:00:22.641Z,101718.22
2023-01-29T23:10:26.946Z,101721.00
2023-01-29T23:20:30.205Z,101656.69
2023-01-29T23:30:34.624Z,101695.31
2023-01-29T23:40:37.761Z,101669.25
2023-01-29T23:50:42.179Z,101646.22
